createdAt,value
2018-12-02T00:02:00.589Z,67.62
2018-12-02T00:04:30.104Z,67.57
2018-12-02T00:06:59.593Z,67.20
2018-12-02T00:09:29.127Z,67.42
2018-12-02T00:11:58.648Z,67.02
2018-12-02T00:14:28.234Z,67.71
2018-12-02T00:16:57.756Z,67.67
2018-12-02T00:19:27.313Z,67.25
2018-12-02T00:21:56.874Z,67.32
2018-12-02T00:24:26.409Z,67.42
2018-12-02T00:26:55.972Z,68.12
2018-12-02T00:29:25.576Z,67.66
2018-12-02T00:31:55.078Z,67.79
2018-12-02T00:34:24.636Z,67.64
2018-12-02T00:36:54.125Z,67.50
2018-12-02T00:39:23.649Z,67.48
2018-12-02T00:41:53.176Z,67.53
2018-12-02T00:44:22.694Z,68.14
2018-12-02T00:46:52.208Z,67.75
2018-12-02T00:49:21.700Z,68.42
2018-12-02T00:51:51.256Z,68.21
2018-12-02T00:54:20.749Z,68.34
2018-12-02T00:56:50.269Z,68.64
2018-12-02T00:59:19.793Z,68.60
2018-12-02T01:01:49.359Z,68.66
2018-12-02T01:04:18.931Z,68.71
2018-12-02T01:06:53.418Z,68.75
2018-12-02T01:09:17.945Z,68.35
2018-12-02T01:11:47.484Z,68.27
2018-12-02T01:14:17.005Z,68.47
2018-12-02T01:16:46.550Z,68.39
2018-12-02T01:19:16.034Z,68.09
2018-12-02T01:21:45.541Z,68.37
2018-12-02T01:24:15.058Z,68.35
2018-12-02T01:26:44.590Z,67.79
2018-12-02T01:29:14.081Z,67.93
2018-12-02T01:31:43.602Z,68.21
2018-12-02T01:34:13.093Z,68.05
2018-12-02T01:36:42.624Z,68.13
2018-12-02T01:39:12.128Z,67.85
2018-12-02T01:41:41.653Z,68.34
2018-12-02T01:44:11.140Z,68.21
2018-12-02T01:46:40.677Z,67.87
2018-12-02T01:49:10.213Z,68.34
2018-12-02T01:51:39.745Z,68.05
2018-12-02T01:54:09.278Z,68.58
2018-12-02T01:56:38.760Z,68.50
2018-12-02T01:59:08.306Z,67.79
2018-12-02T02:01:37.806Z,68.03
2018-12-02T02:04:07.358Z,68.03
2018-12-02T02:06:36.873Z,68.20
2018-12-02T02:09:09.261Z,68.06
2018-12-02T02:11:39.107Z,68.37
2018-12-02T02:14:08.645Z,67.79
2018-12-02T02:16:38.181Z,68.40
2018-12-02T02:19:07.701Z,68.55
2018-12-02T02:21:37.220Z,68.56
2018-12-02T02:24:07.042Z,68.26
2018-12-02T02:26:36.610Z,68.80
2018-12-02T02:29:06.472Z,68.29
2018-12-02T02:31:36.014Z,68.35
2018-12-02T02:34:05.887Z,68.21
2018-12-02T02:36:35.381Z,68.53
2018-12-02T02:39:06.426Z,68.19
2018-12-02T02:41:35.963Z,68.45
2018-12-02T02:44:05.649Z,68.59
2018-12-02T02:46:35.112Z,68.54
2018-12-02T02:49:04.705Z,68.14
2018-12-02T02:51:34.193Z,68.52
2018-12-02T02:54:03.700Z,68.28
2018-12-02T02:56:33.184Z,68.20
2018-12-02T02:59:02.832Z,68.66
2018-12-02T03:01:32.317Z,68.52
2018-12-02T03:04:01.876Z,68.05
2018-12-02T03:06:31.368Z,68.48
2018-12-02T03:09:00.897Z,68.16
2018-12-02T03:11:30.431Z,68.38
2018-12-02T03:13:59.934Z,68.02
2018-12-02T03:16:29.452Z,67.70
2018-12-02T03:18:58.930Z,67.63
2018-12-02T03:21:28.472Z,68.52
2018-12-02T03:23:57.978Z,68.36
2018-12-02T03:26:27.514Z,68.56
2018-12-02T03:28:56.989Z,68.24
2018-12-02T03:31:26.533Z,68.81
2018-12-02T03:33:56.023Z,68.28
2018-12-02T03:36:25.546Z,68.29
2018-12-02T03:38:55.097Z,68.98
2018-12-02T03:41:24.605Z,68.91
2018-12-02T03:43:54.133Z,68.35
2018-12-02T03:46:23.651Z,69.12
2018-12-02T03:48:53.162Z,69.01
2018-12-02T03:51:22.779Z,69.00
2018-12-02T03:53:52.293Z,68.90
2018-12-02T03:56:21.811Z,68.84
2018-12-02T03:58:51.336Z,69.44
2018-12-02T04:01:20.869Z,69.54
2018-12-02T04:03:50.374Z,69.37
2018-12-02T04:06:19.921Z,69.45
2018-12-02T04:08:49.419Z,69.23
2018-12-02T04:11:18.953Z,69.81
2018-12-02T04:13:48.445Z,69.83
2018-12-02T04:16:17.990Z,69.68
2018-12-02T04:18:47.493Z,69.30
2018-12-02T04:21:17.047Z,69.15
2018-12-02T04:23:46.536Z,69.54
2018-12-02T04:26:16.150Z,69.55
2018-12-02T04:28:45.633Z,69.91
2018-12-02T04:31:15.148Z,69.38
2018-12-02T04:33:44.661Z,69.31
2018-12-02T04:36:14.153Z,69.29
2018-12-02T04:38:43.721Z,69.54
2018-12-02T04:41:13.226Z,69.52
2018-12-02T04:43:42.754Z,69.55
2018-12-02T04:46:12.286Z,69.44
2018-12-02T04:48:41.846Z,69.05
2018-12-02T04:51:11.373Z,69.52
2018-12-02T04:53:40.897Z,69.31
2018-12-02T04:56:10.410Z,69.49
2018-12-02T04:58:39.909Z,68.92
2018-12-02T05:01:09.437Z,68.65
2018-12-02T05:03:38.959Z,69.18
2018-12-02T05:06:08.468Z,69.15
2018-12-02T05:08:38.011Z,69.23
2018-12-02T05:11:07.500Z,68.73
2018-12-02T05:13:37.016Z,69.18
2018-12-02T05:16:06.558Z,68.55
2018-12-02T05:18:36.079Z,68.43
2018-12-02T05:21:05.732Z,69.05
2018-12-02T05:23:35.238Z,68.80
2018-12-02T05:26:04.765Z,68.80
2018-12-02T05:28:34.344Z,69.04
2018-12-02T05:31:03.885Z,68.91
2018-12-02T05:33:33.418Z,69.48
2018-12-02T05:36:02.915Z,69.37
2018-12-02T05:38:32.429Z,69.58
2018-12-02T05:41:01.954Z,69.18
2018-12-02T05:43:31.494Z,69.34
2018-12-02T05:46:00.977Z,69.55
2018-12-02T05:48:30.540Z,69.56
2018-12-02T05:51:00.008Z,69.67
2018-12-02T05:53:29.521Z,69.47
2018-12-02T05:55:59.035Z,69.42
2018-12-02T05:58:28.602Z,70.53
2018-12-02T06:00:58.101Z,70.73
2018-12-02T06:03:27.677Z,71.03
2018-12-02T06:05:57.169Z,71.42
2018-12-02T06:08:26.706Z,71.61
2018-12-02T06:10:56.201Z,71.55
2018-12-02T06:13:25.718Z,71.64
2018-12-02T06:15:55.316Z,72.15
2018-12-02T06:18:24.784Z,71.85
2018-12-02T06:20:54.680Z,72.19
2018-12-02T06:23:23.859Z,72.21
2018-12-02T06:25:53.411Z,73.08
2018-12-02T06:28:22.907Z,73.69
2018-12-02T06:30:52.444Z,73.11
2018-12-02T06:33:21.983Z,74.74
2018-12-02T06:35:51.572Z,74.16
2018-12-02T06:38:21.130Z,74.20
2018-12-02T06:40:50.672Z,73.81
2018-12-02T06:43:20.157Z,73.51
2018-12-02T06:45:49.681Z,73.82
2018-12-02T06:48:19.286Z,73.49
2018-12-02T06:50:48.760Z,73.10
2018-12-02T06:53:18.317Z,72.99
2018-12-02T06:58:55.956Z,72.41
2018-12-02T07:02:10.520Z,71.95
2018-12-02T07:04:41.713Z,72.08
2018-12-02T07:07:11.280Z,71.68
2018-12-02T07:09:40.785Z,71.71
2018-12-02T07:12:10.725Z,71.92
2018-12-02T07:14:40.228Z,71.58
2018-12-02T07:17:09.744Z,71.76
2018-12-02T07:19:44.057Z,71.08
2018-12-02T07:22:19.118Z,70.71
2018-12-02T07:24:50.693Z,71.27
2018-12-02T07:27:20.252Z,71.35
2018-12-02T07:29:49.797Z,71.22
2018-12-02T07:32:19.365Z,71.47
2018-12-02T07:34:48.849Z,70.90
2018-12-02T07:37:19.821Z,70.92
2018-12-02T07:39:57.277Z,70.99
2018-12-02T07:42:26.805Z,70.74
2018-12-02T07:44:56.330Z,70.62
2018-12-02T07:47:25.813Z,70.28
2018-12-02T07:49:55.329Z,70.58
2018-12-02T07:52:24.810Z,70.41
2018-12-02T07:54:54.337Z,69.67
2018-12-02T07:57:23.856Z,69.36
2018-12-02T07:59:53.333Z,69.94
2018-12-02T08:02:22.863Z,70.04
2018-12-02T08:04:52.340Z,69.89
2018-12-02T08:07:21.854Z,69.46
2018-12-02T08:09:51.393Z,69.38
2018-12-02T08:12:20.932Z,68.92
2018-12-02T08:14:50.455Z,69.61
2018-12-02T08:17:19.992Z,68.27
2018-12-02T08:19:49.488Z,68.23
2018-12-02T08:22:19.141Z,67.94
2018-12-02T08:24:48.641Z,67.89
2018-12-02T08:27:18.170Z,68.27
2018-12-02T08:29:47.722Z,67.22
2018-12-02T08:32:17.236Z,67.34
2018-12-02T08:34:46.763Z,66.82
2018-12-02T08:37:16.267Z,67.56
2018-12-02T08:39:45.813Z,67.27
2018-12-02T08:42:15.322Z,66.70
2018-12-02T08:44:44.861Z,66.57
2018-12-02T08:47:14.360Z,66.09
2018-12-02T08:49:43.935Z,66.51
2018-12-02T08:52:13.477Z,66.10
2018-12-02T08:54:42.998Z,66.39
2018-12-02T08:57:12.561Z,66.65
2018-12-02T08:59:42.113Z,66.51
2018-12-02T09:02:11.648Z,66.39
2018-12-02T09:04:41.146Z,66.03
2018-12-02T09:07:10.682Z,65.79
2018-12-02T09:09:40.193Z,65.22
2018-12-02T09:12:09.742Z,65.39
2018-12-02T09:14:39.317Z,65.60
2018-12-02T09:17:08.888Z,65.06
2018-12-02T09:19:38.437Z,65.46
2018-12-02T09:22:07.961Z,65.36
2018-12-02T09:24:37.507Z,65.17
2018-12-02T09:27:07.088Z,65.32
2018-12-02T09:29:36.580Z,65.31
2018-12-02T09:32:06.542Z,65.28
2018-12-02T09:34:36.060Z,65.45
2018-12-02T09:37:05.600Z,65.18
2018-12-02T09:39:35.102Z,64.93
2018-12-02T09:42:04.741Z,64.16
2018-12-02T09:44:34.301Z,64.05
2018-12-02T09:47:03.843Z,64.15
2018-12-02T09:49:33.395Z,64.90
2018-12-02T09:52:02.917Z,65.23
2018-12-02T09:54:32.469Z,65.66
2018-12-02T09:57:01.957Z,65.48
2018-12-02T09:59:31.509Z,64.36
2018-12-02T10:02:01.032Z,64.35
2018-12-02T10:04:30.612Z,63.93
2018-12-02T10:07:00.152Z,63.91
2018-12-02T10:09:29.646Z,64.26
2018-12-02T10:11:59.172Z,63.91
2018-12-02T10:14:28.689Z,63.80
2018-12-02T10:16:58.181Z,63.35
2018-12-02T10:19:27.719Z,62.58
2018-12-02T10:21:57.325Z,61.92
2018-12-02T10:24:26.801Z,62.47
2018-12-02T10:26:56.353Z,62.50
2018-12-02T10:29:25.841Z,62.16
2018-12-02T10:31:55.458Z,61.31
2018-12-02T10:34:25.046Z,60.90
2018-12-02T10:36:54.557Z,61.56
2018-12-02T10:39:24.104Z,61.60
2018-12-02T10:41:53.605Z,60.56
2018-12-02T10:44:23.201Z,60.77
2018-12-02T10:46:52.729Z,61.15
2018-12-02T10:49:22.253Z,60.84
2018-12-02T10:51:51.841Z,60.99
2018-12-02T10:54:21.358Z,60.89
2018-12-02T10:56:50.970Z,60.62
2018-12-02T10:59:20.517Z,60.07
2018-12-02T11:01:54.124Z,59.88
2018-12-02T11:04:23.614Z,59.84
2018-12-02T11:06:53.153Z,59.71
2018-12-02T11:09:22.641Z,59.79
2018-12-02T11:11:52.170Z,59.66
2018-12-02T11:14:21.657Z,59.29
2018-12-02T11:16:51.190Z,59.21
2018-12-02T11:19:20.672Z,58.79
2018-12-02T11:21:50.213Z,58.66
2018-12-02T11:24:19.692Z,58.62
2018-12-02T11:26:49.248Z,58.89
2018-12-02T11:29:18.814Z,58.62
2018-12-02T11:31:48.381Z,58.77
2018-12-02T11:34:17.877Z,58.70
2018-12-02T11:36:47.413Z,59.04
2018-12-02T11:39:16.889Z,59.08
2018-12-02T11:41:46.360Z,58.74
2018-12-02T11:44:15.844Z,58.53
2018-12-02T11:46:45.375Z,58.53
2018-12-02T11:49:14.910Z,58.96
2018-12-02T11:51:44.454Z,59.11
2018-12-02T11:54:14.001Z,59.36
2018-12-02T11:56:43.508Z,59.31
2018-12-02T11:59:13.081Z,59.29
2018-12-02T12:01:42.560Z,59.54
2018-12-02T12:04:12.078Z,59.75
2018-12-02T12:06:41.621Z,59.65
2018-12-02T12:09:11.182Z,59.63
2018-12-02T12:11:40.685Z,59.72
2018-12-02T12:14:10.234Z,59.55
2018-12-02T12:16:39.720Z,59.37
2018-12-02T12:19:09.252Z,59.18
2018-12-02T12:21:38.740Z,58.99
2018-12-02T12:24:08.299Z,58.85
2018-12-02T12:26:37.780Z,58.55
2018-12-02T12:29:07.313Z,58.71
2018-12-02T12:31:36.814Z,58.63
2018-12-02T12:34:06.430Z,58.71
2018-12-02T12:36:35.918Z,58.62
2018-12-02T12:39:07.917Z,58.54
2018-12-02T12:41:37.456Z,58.55
2018-12-02T12:44:09.777Z,58.70
2018-12-02T12:46:39.281Z,58.92
2018-12-02T12:49:08.769Z,59.09
2018-12-02T12:51:39.900Z,59.25
2018-12-02T12:54:07.809Z,59.16
2018-12-02T12:56:37.334Z,59.48
2018-12-02T12:59:06.883Z,59.29
2018-12-02T13:01:36.410Z,59.33
2018-12-02T13:04:06.169Z,59.44
2018-12-02T13:06:35.700Z,59.23
2018-12-02T13:09:08.590Z,59.44
2018-12-02T13:11:38.170Z,59.14
2018-12-02T13:14:07.710Z,59.28
2018-12-02T13:16:37.333Z,59.32
2018-12-02T13:19:06.856Z,59.23
2018-12-02T13:21:36.462Z,59.19
2018-12-02T13:24:06.121Z,59.19
2018-12-02T13:26:35.680Z,59.16
2018-12-02T13:29:05.181Z,59.30
2018-12-02T13:31:34.704Z,59.36
2018-12-02T13:34:04.262Z,59.31
2018-12-02T13:36:33.804Z,59.66
2018-12-02T13:39:03.841Z,59.92
2018-12-02T13:41:33.380Z,60.02
2018-12-02T13:44:02.893Z,60.10
2018-12-02T13:46:32.386Z,59.93
2018-12-02T13:49:01.921Z,60.14
2018-12-02T13:51:31.505Z,60.33
2018-12-02T13:54:06.136Z,60.44
2018-12-02T13:56:35.664Z,60.41
2018-12-02T13:59:05.208Z,60.40
2018-12-02T14:01:34.737Z,60.42
2018-12-02T14:04:04.261Z,60.42
2018-12-02T14:06:33.797Z,60.37
2018-12-02T14:09:03.499Z,60.34
2018-12-02T14:11:32.993Z,60.38
2018-12-02T14:14:02.825Z,60.50
2018-12-02T14:17:06.866Z,60.49
2018-12-02T14:19:36.696Z,60.82
2018-12-02T14:22:06.565Z,61.03
2018-12-02T14:24:36.088Z,61.04
2018-12-02T14:27:06.053Z,61.14
2018-12-02T14:29:37.806Z,61.15
2018-12-02T14:32:10.640Z,61.39
2018-12-02T14:34:40.228Z,61.68
2018-12-02T14:37:09.721Z,61.85
2018-12-02T14:39:39.249Z,62.13
2018-12-02T14:42:08.784Z,62.34
2018-12-02T14:44:38.252Z,62.46
2018-12-02T14:47:07.880Z,62.79
2018-12-02T14:49:37.807Z,63.01
2018-12-02T14:52:07.518Z,63.34
2018-12-02T14:54:37.006Z,63.55
2018-12-02T14:57:06.629Z,63.73
2018-12-02T14:59:36.105Z,63.64
2018-12-02T15:02:06.036Z,63.86
2018-12-02T15:04:35.513Z,64.35
2018-12-02T15:07:05.210Z,65.14
2018-12-02T15:09:34.712Z,64.63
2018-12-02T15:12:04.293Z,64.60
2018-12-02T15:14:33.816Z,64.69
2018-12-02T15:17:03.364Z,64.84
2018-12-02T15:19:32.883Z,64.99
2018-12-02T15:22:02.446Z,65.11
2018-12-02T15:24:31.985Z,65.46
2018-12-02T15:27:01.563Z,65.41
2018-12-02T15:29:31.064Z,65.50
2018-12-02T15:32:00.636Z,65.64
2018-12-02T15:34:30.137Z,66.01
2018-12-02T15:36:59.693Z,65.82
2018-12-02T15:39:29.214Z,66.18
2018-12-02T15:41:58.758Z,66.04
2018-12-02T15:44:28.261Z,66.07
2018-12-02T15:46:57.856Z,66.15
2018-12-02T15:49:27.388Z,66.36
2018-12-02T15:51:56.893Z,66.62
2018-12-02T15:54:26.447Z,66.59
2018-12-02T15:56:55.949Z,66.99
2018-12-02T15:59:25.485Z,66.98
2018-12-02T16:01:55.053Z,67.06
2018-12-02T16:04:24.547Z,67.01
2018-12-02T16:06:54.113Z,67.29
2018-12-02T16:09:23.653Z,67.39
2018-12-02T16:11:53.232Z,67.42
2018-12-02T16:14:22.724Z,67.70
2018-12-02T16:16:52.967Z,67.87
2018-12-02T16:19:21.853Z,67.94
2018-12-02T16:21:51.356Z,67.90
2018-12-02T16:24:20.873Z,68.14
2018-12-02T16:26:50.357Z,68.17
2018-12-02T16:29:19.897Z,68.39
2018-12-02T16:31:49.401Z,68.62
2018-12-02T16:34:18.929Z,68.37
2018-12-02T16:36:48.424Z,68.80
2018-12-02T16:39:17.980Z,68.62
2018-12-02T16:41:47.505Z,68.71
2018-12-02T16:44:17.008Z,68.92
2018-12-02T16:46:46.554Z,69.06
2018-12-02T16:49:16.046Z,69.32
2018-12-02T16:51:45.568Z,69.42
2018-12-02T16:54:15.078Z,69.10
2018-12-02T16:56:44.629Z,69.26
2018-12-02T16:59:18.369Z,69.02
2018-12-02T17:02:05.324Z,69.33
2018-12-02T17:04:33.866Z,69.23
2018-12-02T17:07:03.382Z,69.48
2018-12-02T17:09:32.904Z,69.33
2018-12-02T17:12:02.482Z,69.12
2018-12-02T17:14:32.036Z,69.29
2018-12-02T17:17:01.528Z,69.57
2018-12-02T17:19:31.068Z,69.65
2018-12-02T17:22:00.590Z,69.49
2018-12-02T17:24:30.183Z,69.37
2018-12-02T17:26:59.680Z,69.78
2018-12-02T17:29:29.248Z,69.95
2018-12-02T17:32:03.069Z,70.00
2018-12-02T17:34:32.645Z,69.73
2018-12-02T17:37:02.137Z,70.15
2018-12-02T17:39:33.205Z,69.86
2018-12-02T17:42:08.233Z,69.95
2018-12-02T17:44:37.785Z,69.86
2018-12-02T17:47:07.609Z,70.35
2018-12-02T17:49:37.245Z,70.56
2018-12-02T17:52:07.859Z,70.08
2018-12-02T17:54:37.407Z,70.62
2018-12-02T17:57:06.925Z,70.55
2018-12-02T17:59:36.447Z,70.46
2018-12-02T18:02:06.409Z,70.71
2018-12-02T18:04:35.949Z,70.84
2018-12-02T18:07:05.946Z,70.16
2018-12-02T18:09:35.489Z,70.25
2018-12-02T18:12:05.122Z,70.57
2018-12-02T18:14:34.613Z,70.68
2018-12-02T18:17:04.197Z,70.74
2018-12-02T18:19:33.759Z,70.87
2018-12-02T18:22:03.252Z,70.77
2018-12-02T18:24:32.750Z,70.57
2018-12-02T18:27:02.281Z,70.47
2018-12-02T18:29:31.854Z,70.37
2018-12-02T18:32:01.373Z,70.57
2018-12-02T18:34:32.772Z,70.68
2018-12-02T18:37:02.260Z,71.20
2018-12-02T18:39:31.809Z,71.15
2018-12-02T18:42:01.396Z,70.89
2018-12-02T18:44:30.888Z,70.92
2018-12-02T18:47:00.433Z,71.21
2018-12-02T18:49:29.961Z,71.05
2018-12-02T18:51:59.540Z,70.96
2018-12-02T18:54:29.069Z,70.38
2018-12-02T18:56:58.609Z,71.08
2018-12-02T18:59:28.133Z,70.75
2018-12-02T19:01:57.639Z,70.95
2018-12-02T19:04:27.287Z,70.88
2018-12-02T19:07:07.818Z,70.54
2018-12-02T19:09:26.397Z,70.97
2018-12-02T19:11:55.917Z,71.25
2018-12-02T19:14:25.469Z,71.06
2018-12-02T19:16:54.966Z,70.80
2018-12-02T19:19:24.493Z,71.51
2018-12-02T19:21:54.039Z,71.49
2018-12-02T19:24:23.560Z,71.51
2018-12-02T19:26:53.097Z,70.96
2018-12-02T19:29:22.617Z,71.04
2018-12-02T19:31:52.112Z,71.85
2018-12-02T19:34:21.668Z,70.97
2018-12-02T19:36:55.718Z,70.98
2018-12-02T19:39:25.248Z,71.12
2018-12-02T19:41:54.776Z,71.33
2018-12-02T19:44:24.298Z,71.52
2018-12-02T19:46:53.842Z,71.58
2018-12-02T19:49:23.337Z,71.71
2018-12-02T19:51:52.937Z,71.30
2018-12-02T19:54:22.453Z,71.44
2018-12-02T19:56:51.995Z,71.89
2018-12-02T19:59:21.492Z,71.50
2018-12-02T20:01:51.006Z,71.36
2018-12-02T20:04:20.490Z,71.31
2018-12-02T20:06:50.035Z,71.85
2018-12-02T20:09:19.602Z,71.11
2018-12-02T20:11:49.210Z,71.23
2018-12-02T20:14:18.790Z,71.43
2018-12-02T20:16:48.272Z,71.59
2018-12-02T20:19:23.023Z,71.68
2018-12-02T20:21:52.524Z,71.98
2018-12-02T20:24:27.070Z,71.42
2018-12-02T20:26:56.565Z,71.98
2018-12-02T20:29:26.083Z,71.59
2018-12-02T20:31:55.572Z,71.85
2018-12-02T20:34:25.093Z,71.56
2018-12-02T20:36:54.640Z,71.38
2018-12-02T20:39:24.137Z,71.79
2018-12-02T20:41:53.681Z,71.52
2018-12-02T20:44:23.178Z,71.96
2018-12-02T20:46:52.753Z,72.03
2018-12-02T20:49:22.308Z,71.69
2018-12-02T20:51:51.814Z,71.85
2018-12-02T20:54:21.358Z,71.60
2018-12-02T20:56:50.861Z,71.69
2018-12-02T20:59:20.397Z,71.42
2018-12-02T21:01:49.944Z,71.39
2018-12-02T21:04:19.993Z,71.83
2018-12-02T21:06:49.520Z,72.02
2018-12-02T21:09:19.093Z,71.44
2018-12-02T21:11:48.593Z,71.69
2018-12-02T21:14:18.171Z,72.15
2018-12-02T21:16:47.744Z,72.04
2018-12-02T21:19:17.337Z,72.13
2018-12-02T21:21:46.877Z,72.24
2018-12-02T21:24:16.409Z,71.90
2018-12-02T21:26:45.949Z,72.33
2018-12-02T21:29:15.444Z,72.22
2018-12-02T21:31:44.984Z,71.61
2018-12-02T21:34:14.476Z,71.42
2018-12-02T21:36:44.011Z,71.51
2018-12-02T21:39:13.504Z,72.04
2018-12-02T21:41:43.077Z,72.04
2018-12-02T21:44:12.562Z,71.75
2018-12-02T21:46:42.102Z,72.17
2018-12-02T21:49:11.588Z,71.89
2018-12-02T21:51:41.117Z,71.94
2018-12-02T21:54:10.658Z,72.02
2018-12-02T21:56:40.144Z,71.75
2018-12-02T21:59:09.668Z,72.00
2018-12-02T22:01:39.165Z,71.74
2018-12-02T22:04:08.715Z,71.72
2018-12-02T22:06:38.197Z,71.68
2018-12-02T22:09:08.852Z,71.00
2018-12-02T22:11:38.366Z,71.69
2018-12-02T22:14:07.895Z,71.45
2018-12-02T22:16:37.417Z,71.64
2018-12-02T22:19:06.993Z,71.62
2018-12-02T22:21:36.514Z,72.27
2018-12-02T22:24:06.242Z,72.67
2018-12-02T22:26:35.776Z,72.65
2018-12-02T22:29:05.524Z,72.28
2018-12-02T22:31:35.028Z,72.64
2018-12-02T22:34:04.646Z,72.70
2018-12-02T22:36:34.247Z,72.31
2018-12-02T22:39:04.287Z,72.64
2018-12-02T22:41:33.826Z,72.30
2018-12-02T22:44:03.429Z,72.62
2018-12-02T22:46:32.953Z,72.94
2018-12-02T22:49:02.431Z,72.93
2018-12-02T22:51:31.990Z,72.84
2018-12-02T22:54:01.537Z,72.39
2018-12-02T22:56:31.053Z,72.40
2018-12-02T22:59:00.560Z,73.09
2018-12-02T23:01:35.197Z,73.47
2018-12-02T23:04:04.757Z,73.68
2018-12-02T23:06:34.250Z,73.64
2018-12-02T23:09:04.048Z,73.81
2018-12-02T23:11:33.537Z,73.47
2018-12-02T23:14:03.084Z,73.26
2018-12-02T23:16:32.618Z,73.41
2018-12-02T23:19:02.143Z,73.84
2018-12-02T23:21:31.625Z,76.93
2018-12-02T23:24:01.149Z,77.71
2018-12-02T23:26:30.694Z,76.73
2018-12-02T23:29:00.236Z,77.02
2018-12-02T23:31:29.779Z,76.29
2018-12-02T23:33:59.725Z,76.72
2018-12-02T23:36:28.858Z,76.20
2018-12-02T23:38:58.351Z,77.09
2018-12-02T23:41:27.894Z,77.20
2018-12-02T23:43:57.400Z,76.31
2018-12-02T23:46:26.953Z,76.69
2018-12-02T23:48:56.480Z,77.08
2018-12-02T23:51:26.028Z,76.48
2018-12-02T23:53:55.577Z,76.46
2018-12-02T23:56:25.165Z,75.87
2018-12-02T23:58:54.629Z,76.10
